createdAt,value
2019-04-23T00:01:33.167Z,17.40
2019-04-23T00:04:01.410Z,17.40
2019-04-23T00:06:42.956Z,17.30
2019-04-23T00:09:20.472Z,17.30
2019-04-23T00:11:32.540Z,17.30
2019-04-23T00:14:05.724Z,17.20
2019-04-23T00:16:38.182Z,17.20
2019-04-23T00:19:20.970Z,17.10
2019-04-23T00:22:08.784Z,17.00
2019-04-23T00:27:42.901Z,17.00
2019-04-23T00:30:14.949Z,17.00
2019-04-23T00:32:35.061Z,16.90
2019-04-23T00:35:00.720Z,16.90
2019-04-23T00:37:34.609Z,16.90
2019-04-23T00:39:59.201Z,16.80
2019-04-23T00:42:38.632Z,16.70
2019-04-23T00:45:03.313Z,16.70
2019-04-23T00:47:51.426Z,16.70
2019-04-23T00:52:55.104Z,16.60
2019-04-23T00:55:12.449Z,16.60
2019-04-23T01:02:49.173Z,16.40
2019-04-23T01:07:47.477Z,16.40
2019-04-23T01:15:18.923Z,16.30
2019-04-23T01:17:53.103Z,16.30
2019-04-23T01:20:24.142Z,16.20
2019-04-23T01:22:33.705Z,16.20
2019-04-23T01:25:32.281Z,16.20
2019-04-23T01:28:33.595Z,16.10
2019-04-23T01:31:03.710Z,16.10
2019-04-23T01:33:35.399Z,16.00
2019-04-23T01:36:21.453Z,15.90
2019-04-23T01:39:06.212Z,16.00
2019-04-23T01:41:20.462Z,15.90
2019-04-23T01:44:04.185Z,15.90
2019-04-23T01:46:22.052Z,15.90
2019-04-23T01:48:55.174Z,15.80
2019-04-23T01:51:27.879Z,15.80
2019-04-23T01:54:12.308Z,15.70
2019-04-23T01:56:25.915Z,15.70
2019-04-23T02:01:40.126Z,15.70
2019-04-23T02:04:03.288Z,15.60
2019-04-23T02:09:10.082Z,15.60
2019-04-23T02:11:37.673Z,15.60
2019-04-23T02:14:09.669Z,15.50
2019-04-23T02:19:30.532Z,15.50
2019-04-23T02:22:03.765Z,15.40
2019-04-23T02:25:03.586Z,15.40
2019-04-23T02:27:36.171Z,15.40
2019-04-23T02:30:15.634Z,15.40
2019-04-23T02:32:49.650Z,15.30
2019-04-23T02:35:17.052Z,15.30
2019-04-23T02:37:53.719Z,15.20
2019-04-23T02:43:01.659Z,15.20
2019-04-23T02:45:16.521Z,15.10
2019-04-23T02:48:01.844Z,15.10
2019-04-23T02:53:02.591Z,15.00
2019-04-23T02:55:26.744Z,15.00
2019-04-23T02:58:00.786Z,15.00
2019-04-23T03:00:39.916Z,14.90
2019-04-23T03:05:46.806Z,14.90
2019-04-23T03:08:12.707Z,14.80
2019-04-23T03:16:08.351Z,14.70
2019-04-23T03:29:16.687Z,14.50
2019-04-23T03:34:04.120Z,14.40
2019-04-23T03:37:11.101Z,14.40
2019-04-23T03:38:56.641Z,14.40
2019-04-23T03:44:18.654Z,14.30
2019-04-23T03:46:36.971Z,14.30
2019-04-23T03:49:33.281Z,14.30
2019-04-23T03:51:56.795Z,14.20
2019-04-23T03:57:06.113Z,14.20
2019-04-23T03:59:29.026Z,14.20
2019-04-23T04:04:35.025Z,14.10
2019-04-23T04:09:38.580Z,14.10
2019-04-23T04:12:12.462Z,14.00
2019-04-23T04:14:44.813Z,14.00
2019-04-23T04:17:13.769Z,14.00
2019-04-23T04:19:44.869Z,14.00
2019-04-23T04:22:18.391Z,14.00
2019-04-23T04:24:40.165Z,13.90
2019-04-23T04:32:47.341Z,13.90
2019-04-23T04:40:29.441Z,13.80
2019-04-23T04:48:09.489Z,13.80
2019-04-23T04:51:00.395Z,13.80
2019-04-23T04:53:24.892Z,13.80
2019-04-23T04:55:49.257Z,13.80
2019-04-23T04:58:30.803Z,13.80
2019-04-23T05:01:08.278Z,13.80
2019-04-23T05:03:32.736Z,13.80
2019-04-23T05:06:16.197Z,13.80
2019-04-23T05:08:36.857Z,13.80
2019-04-23T05:11:24.173Z,13.80
2019-04-23T05:14:02.275Z,13.80
2019-04-23T05:16:27.667Z,13.80
2019-04-23T05:19:13.761Z,13.70
2019-04-23T05:26:46.548Z,13.70
2019-04-23T05:29:31.260Z,13.70
2019-04-23T05:32:14.638Z,13.70
2019-04-23T05:34:54.192Z,13.80
2019-04-23T05:37:43.424Z,13.80
2019-04-23T05:39:52.170Z,13.80
2019-04-23T05:42:19.579Z,14.70
2019-04-23T05:44:53.989Z,15.10
2019-04-23T05:47:27.399Z,15.50
2019-04-23T05:49:54.639Z,15.20
2019-04-23T05:52:24.037Z,14.90
2019-04-23T05:54:57.529Z,14.80
2019-04-23T05:57:20.054Z,14.50
2019-04-23T05:59:57.151Z,14.30
2019-04-23T06:02:37.310Z,14.30
2019-04-23T06:05:03.836Z,14.30
2019-04-23T06:12:33.581Z,14.20
2019-04-23T06:15:05.245Z,14.20
2019-04-23T06:17:30.922Z,14.30
2019-04-23T06:20:10.171Z,14.30
2019-04-23T06:25:12.546Z,14.40
2019-04-23T06:27:39.705Z,14.40
2019-04-23T06:30:15.043Z,14.30
2019-04-23T06:32:46.637Z,14.30
2019-04-23T06:35:11.823Z,14.20
2019-04-23T06:38:13.586Z,14.20
2019-04-23T06:40:24.737Z,14.20
2019-04-23T06:42:57.902Z,14.30
2019-04-23T06:45:37.428Z,14.20
2019-04-23T06:48:15.499Z,14.20
2019-04-23T06:50:53.896Z,14.20
2019-04-23T06:53:04.311Z,14.30
2019-04-23T06:58:37.084Z,14.40
2019-04-23T07:01:05.338Z,14.50
2019-04-23T07:03:43.748Z,14.50
2019-04-23T07:09:05.343Z,14.70
2019-04-23T07:11:23.545Z,14.80
2019-04-23T07:16:28.265Z,14.80
2019-04-23T07:19:04.934Z,14.90
2019-04-23T07:21:17.946Z,15.00
2019-04-23T07:24:06.889Z,15.20
2019-04-23T07:26:30.595Z,15.20
2019-04-23T07:28:56.340Z,15.30
2019-04-23T07:36:32.667Z,15.50
2019-04-23T07:44:24.187Z,15.80
2019-04-23T07:47:11.743Z,15.70
2019-04-23T07:49:31.148Z,15.70
2019-04-23T07:52:12.873Z,15.70
2019-04-23T07:54:51.308Z,15.70
2019-04-23T07:59:48.683Z,16.00
2019-04-23T08:02:21.967Z,16.10
2019-04-23T08:05:20.282Z,16.10
2019-04-23T08:07:44.120Z,16.20
2019-04-23T08:10:12.389Z,16.20
2019-04-23T08:12:45.183Z,16.40
2019-04-23T08:15:14.919Z,16.40
2019-04-23T08:17:37.392Z,16.40
2019-04-23T08:20:14.161Z,16.30
2019-04-23T08:22:47.508Z,16.20
2019-04-23T08:25:42.582Z,16.20
2019-04-23T08:28:20.664Z,16.30
2019-04-23T08:30:42.258Z,16.50
2019-04-23T08:33:33.484Z,16.50
2019-04-23T08:36:04.056Z,16.50
2019-04-23T08:41:12.970Z,16.40
2019-04-23T08:43:40.783Z,16.40
2019-04-23T08:46:33.034Z,16.60
2019-04-23T08:48:57.535Z,16.70
2019-04-23T08:51:37.351Z,16.90
2019-04-23T08:54:01.410Z,17.00
2019-04-23T08:56:38.663Z,17.20
2019-04-23T08:59:05.113Z,17.30
2019-04-23T09:01:43.580Z,17.50
2019-04-23T09:04:00.361Z,17.50
2019-04-23T09:06:30.806Z,17.50
2019-04-23T09:09:04.297Z,17.60
2019-04-23T09:12:14.719Z,17.50
2019-04-23T09:14:20.549Z,17.60
2019-04-23T09:17:00.953Z,17.70
2019-04-23T09:20:03.545Z,17.70
2019-04-23T09:22:03.766Z,17.90
2019-04-23T09:24:29.114Z,18.00
2019-04-23T09:27:07.361Z,18.10
2019-04-23T09:29:42.461Z,18.10
2019-04-23T09:34:54.445Z,18.30
2019-04-23T09:37:20.700Z,18.60
2019-04-23T09:39:59.565Z,18.80
2019-04-23T09:42:37.968Z,19.00
2019-04-23T09:45:05.465Z,19.00
2019-04-23T09:50:32.697Z,19.00
2019-04-23T09:53:24.150Z,19.20
2019-04-23T10:00:45.483Z,19.90
2019-04-23T10:03:09.070Z,20.00
2019-04-23T10:05:37.274Z,20.10
2019-04-23T10:08:06.629Z,20.00
2019-04-23T10:10:30.254Z,19.90
2019-04-23T10:13:02.214Z,19.70
2019-04-23T10:15:48.527Z,19.70
2019-04-23T10:18:18.566Z,19.80
2019-04-23T10:20:48.726Z,19.70
2019-04-23T10:23:19.026Z,19.50
2019-04-23T10:25:49.828Z,19.60
2019-04-23T10:28:38.160Z,19.80
2019-04-23T10:31:08.940Z,19.90
2019-04-23T10:33:39.802Z,19.90
2019-04-23T10:36:13.066Z,20.00
2019-04-23T10:38:44.411Z,20.20
2019-04-23T10:41:12.013Z,20.60
2019-04-23T10:43:46.039Z,20.80
2019-04-23T10:46:43.006Z,21.00
2019-04-23T10:52:07.100Z,20.90
2019-04-23T10:57:07.380Z,20.90
2019-04-23T10:59:53.641Z,21.20
2019-04-23T11:10:07.241Z,21.50
2019-04-23T11:12:46.239Z,21.60
2019-04-23T11:22:56.820Z,21.90
2019-04-23T11:30:41.711Z,22.30
2019-04-23T11:33:09.442Z,22.60
2019-04-23T11:36:09.255Z,22.50
2019-04-23T11:38:35.486Z,22.60
2019-04-23T11:40:33.726Z,22.70
2019-04-23T11:43:14.793Z,22.60
2019-04-23T11:51:26.671Z,22.30
2019-04-23T11:55:44.745Z,22.30
2019-04-23T12:03:56.855Z,22.30
2019-04-23T12:06:52.773Z,22.20
2019-04-23T12:09:09.849Z,22.40
2019-04-23T12:12:00.090Z,22.50
2019-04-23T12:15:16.396Z,22.60
2019-04-23T12:22:34.311Z,22.50
2019-04-23T12:27:30.590Z,22.90
2019-04-23T12:30:01.311Z,23.00
2019-04-23T12:35:03.779Z,23.20
2019-04-23T12:43:05.741Z,23.30
2019-04-23T12:48:15.673Z,23.40
2019-04-23T12:50:52.845Z,23.20
2019-04-23T12:55:41.927Z,22.80
2019-04-23T12:58:19.277Z,22.70
2019-04-23T13:00:52.791Z,22.70
2019-04-23T13:03:24.586Z,22.80
2019-04-23T13:05:57.422Z,22.90
2019-04-23T13:13:23.529Z,23.60
2019-04-23T13:16:12.963Z,23.40
2019-04-23T13:18:31.538Z,23.70
2019-04-23T13:20:47.667Z,23.80
2019-04-23T13:25:57.119Z,24.20
2019-04-23T13:28:35.259Z,24.40
2019-04-23T13:31:08.588Z,24.70
2019-04-23T13:33:52.210Z,25.10
2019-04-23T13:36:11.321Z,25.60
2019-04-23T13:43:40.611Z,27.30
2019-04-23T13:48:46.961Z,27.30
2019-04-23T13:51:26.264Z,27.60
2019-04-23T13:53:53.545Z,27.80
2019-04-23T13:57:12.842Z,27.90
2019-04-23T13:59:12.231Z,28.00
2019-04-23T14:01:32.294Z,27.80
2019-04-23T14:04:14.209Z,27.60
2019-04-23T14:06:41.905Z,27.80
2019-04-23T14:09:14.463Z,27.70
2019-04-23T14:11:43.455Z,27.00
2019-04-23T14:17:13.067Z,26.50
2019-04-23T14:19:16.252Z,26.80
2019-04-23T14:21:44.406Z,26.80
2019-04-23T14:24:32.000Z,26.90
2019-04-23T14:26:46.348Z,26.90
2019-04-23T14:29:25.952Z,27.10
2019-04-23T14:34:43.623Z,26.70
2019-04-23T14:37:02.911Z,26.70
2019-04-23T14:39:24.094Z,26.90
2019-04-23T14:42:07.158Z,26.60
2019-04-23T14:44:31.301Z,26.40
2019-04-23T14:47:11.973Z,26.10
2019-04-23T14:49:45.547Z,26.00
2019-04-23T14:52:16.879Z,26.20
2019-04-23T14:55:17.944Z,26.50
2019-04-23T14:57:23.140Z,26.40
2019-04-23T14:59:46.831Z,26.10
2019-04-23T15:02:22.780Z,26.00
2019-04-23T15:04:49.590Z,25.90
2019-04-23T15:07:22.607Z,25.80
2019-04-23T15:09:59.247Z,25.70
2019-04-23T15:12:23.287Z,25.50
2019-04-23T15:15:02.662Z,25.30
2019-04-23T15:17:22.099Z,25.30
2019-04-23T15:19:58.084Z,25.10
2019-04-23T15:22:42.182Z,24.90
2019-04-23T15:25:30.155Z,25.00
2019-04-23T15:28:05.271Z,25.30
2019-04-23T15:30:09.004Z,25.60
2019-04-23T15:33:03.594Z,25.50
2019-04-23T15:35:33.529Z,25.30
2019-04-23T15:40:28.414Z,25.50
2019-04-23T15:43:06.762Z,25.60
2019-04-23T15:45:30.493Z,25.80
2019-04-23T15:48:03.253Z,25.60
2019-04-23T15:55:33.936Z,24.60
2019-04-23T16:00:38.409Z,24.30
2019-04-23T16:02:45.154Z,24.10
2019-04-23T16:05:15.162Z,23.80
2019-04-23T16:08:04.655Z,23.60
2019-04-23T16:13:27.628Z,23.40
2019-04-23T16:15:50.400Z,23.40
2019-04-23T16:18:37.024Z,23.40
2019-04-23T16:21:20.344Z,23.40
2019-04-23T16:23:47.291Z,23.40
2019-04-23T16:26:24.079Z,23.50
2019-04-23T16:29:07.309Z,23.60
2019-04-23T16:34:05.130Z,23.40
2019-04-23T16:38:59.711Z,23.30
2019-04-23T16:41:39.970Z,23.20
2019-04-23T16:44:16.886Z,23.10
2019-04-23T16:46:48.563Z,23.10
2019-04-23T16:49:19.751Z,23.00
2019-04-23T16:51:43.816Z,23.00
2019-04-23T16:57:15.269Z,22.90
2019-04-23T16:59:21.862Z,22.90
2019-04-23T17:01:52.250Z,22.80
2019-04-23T17:06:52.320Z,22.70
2019-04-23T17:09:34.131Z,22.70
2019-04-23T17:12:00.069Z,22.70
2019-04-23T17:16:50.943Z,22.60
2019-04-23T17:19:28.220Z,22.50
2019-04-23T17:22:01.190Z,22.40
2019-04-23T17:24:31.232Z,22.40
2019-04-23T17:29:38.524Z,22.20
2019-04-23T17:32:05.652Z,22.20
2019-04-23T17:37:22.489Z,22.10
2019-04-23T17:40:08.563Z,22.10
2019-04-23T17:42:39.279Z,22.00
2019-04-23T17:47:52.424Z,21.90
2019-04-23T17:50:20.047Z,21.90
2019-04-23T17:55:22.398Z,21.80
2019-04-23T17:58:03.334Z,21.70
2019-04-23T18:00:35.934Z,21.70
2019-04-23T18:05:25.174Z,21.60
2019-04-23T18:07:59.094Z,21.50
2019-04-23T18:13:04.392Z,21.50
2019-04-23T18:15:35.136Z,21.40
2019-04-23T18:18:10.528Z,21.40
2019-04-23T18:20:37.502Z,21.30
2019-04-23T18:23:09.845Z,21.20
2019-04-23T18:25:43.324Z,21.20
2019-04-23T18:28:08.965Z,21.10
2019-04-23T18:31:05.942Z,21.10
2019-04-23T18:36:02.383Z,20.90
2019-04-23T18:38:42.847Z,20.90
2019-04-23T18:43:42.985Z,20.70
2019-04-23T18:46:14.951Z,20.50
2019-04-23T18:51:23.553Z,20.50
2019-04-23T18:56:42.007Z,20.40
2019-04-23T18:59:24.763Z,20.30
2019-04-23T19:01:43.222Z,20.20
2019-04-23T19:06:43.016Z,20.20
2019-04-23T19:09:35.403Z,20.20
2019-04-23T19:12:25.128Z,20.10
2019-04-23T19:17:36.063Z,20.00
2019-04-23T19:19:53.181Z,20.00
2019-04-23T19:22:19.071Z,20.00
2019-04-23T19:24:48.328Z,19.90
2019-04-23T19:27:18.368Z,19.90
2019-04-23T19:29:47.881Z,19.80
2019-04-23T19:32:14.705Z,19.90
2019-04-23T19:34:42.736Z,19.80
2019-04-23T19:37:26.360Z,19.80
2019-04-23T19:39:50.130Z,19.70
2019-04-23T19:42:28.816Z,19.60
2019-04-23T19:47:37.292Z,19.60
2019-04-23T19:49:58.912Z,19.50
2019-04-23T19:52:52.339Z,19.40
2019-04-23T19:57:50.391Z,19.30
2019-04-23T20:00:17.914Z,19.30
2019-04-23T20:02:55.269Z,19.20
2019-04-23T20:05:02.807Z,19.20
2019-04-23T20:10:28.489Z,19.10
2019-04-23T20:12:40.702Z,19.10
2019-04-23T20:15:03.791Z,19.00
2019-04-23T20:20:08.799Z,19.00
2019-04-23T20:22:48.947Z,18.90
2019-04-23T20:25:38.729Z,18.90
2019-04-23T20:27:52.493Z,18.90
2019-04-23T20:35:38.494Z,18.80
2019-04-23T20:38:27.445Z,18.80
2019-04-23T20:40:50.826Z,18.80
2019-04-23T20:43:15.100Z,18.80
2019-04-23T20:45:51.709Z,18.80
2019-04-23T20:48:18.443Z,18.70
2019-04-23T20:50:44.450Z,18.80
2019-04-23T20:53:13.575Z,18.70
2019-04-23T20:58:33.739Z,18.70
2019-04-23T21:01:09.268Z,18.60
2019-04-23T21:03:49.105Z,18.50
2019-04-23T21:06:07.051Z,18.50
2019-04-23T21:09:00.835Z,18.50
2019-04-23T21:10:58.340Z,18.50
2019-04-23T21:13:56.204Z,18.50
2019-04-23T21:16:04.975Z,18.40
2019-04-23T21:18:48.368Z,18.40
2019-04-23T21:21:27.837Z,18.30
2019-04-23T21:26:19.969Z,18.20
2019-04-23T21:29:13.167Z,18.20
2019-04-23T21:31:35.502Z,18.20
2019-04-23T21:34:12.811Z,18.20
2019-04-23T21:41:53.232Z,18.10
2019-04-23T21:44:13.363Z,18.00
2019-04-23T21:47:04.566Z,18.10
2019-04-23T21:49:50.689Z,18.10
2019-04-23T21:52:11.514Z,18.10
2019-04-23T21:54:44.149Z,18.10
2019-04-23T21:57:10.603Z,18.00
2019-04-23T21:59:46.643Z,18.00
2019-04-23T22:02:12.821Z,18.00
2019-04-23T22:04:47.627Z,18.00
2019-04-23T22:07:18.538Z,17.90
2019-04-23T22:12:15.460Z,17.90
2019-04-23T22:14:55.866Z,18.00
2019-04-23T22:17:16.468Z,18.00
2019-04-23T22:19:55.631Z,18.00
2019-04-23T22:22:51.266Z,17.90
2019-04-23T22:25:08.672Z,17.90
2019-04-23T22:27:48.439Z,17.80
2019-04-23T22:30:12.899Z,17.80
2019-04-23T22:33:00.342Z,17.80
2019-04-23T22:35:21.998Z,17.70
2019-04-23T22:38:01.053Z,17.70
2019-04-23T22:40:18.487Z,17.70
2019-04-23T22:43:14.748Z,17.70
2019-04-23T22:45:28.263Z,17.70
2019-04-23T22:48:10.344Z,17.80
2019-04-23T22:50:31.142Z,17.70
2019-04-23T22:53:04.308Z,17.70
2019-04-23T22:55:38.907Z,17.80
2019-04-23T23:00:24.356Z,17.70
2019-04-23T23:03:21.411Z,17.60
2019-04-23T23:06:11.053Z,17.60
2019-04-23T23:15:53.284Z,17.50
2019-04-23T23:18:28.463Z,17.50
2019-04-23T23:20:59.532Z,17.40
2019-04-23T23:23:21.535Z,17.40
2019-04-23T23:26:02.821Z,17.50
2019-04-23T23:28:35.021Z,17.50
2019-04-23T23:33:30.406Z,17.40
2019-04-23T23:36:05.876Z,17.30
2019-04-23T23:41:12.338Z,17.20
2019-04-23T23:43:48.547Z,17.20
2019-04-23T23:51:23.259Z,17.10
2019-04-23T23:53:51.272Z,17.10
2019-04-23T23:59:03.800Z,17.10
